Huvudsida
METAR-TAF:

METAR-TAF

Flygplatser :

Gage, Oklahoma, USA

latitud: 36-17-48N, longitud: 099-46-08W, höjd: 677 m

Aktuellt väderrapport

Denna rapport gjordes för 58 minuter sedan, klockan 11:53 UTC
Vind 8 kt från väst
Temperatur -2°C
Fuktighet 93%
Tryck 1017 hPa
Sikt: 11.3 km
Klar himmel

METAR: KGAG 261153Z AUTO 26008KT 7SM CLR M02/M03 A3003 RMK AO2 SLP175 T10171033 11006 21039 53009

Tid: 06:51 (12:51 UTC)


TAF: saknas

Aktuella väderrapporter och prognoser från 4000 flygplatser (METAR- och TAF-rapporter).

De tillgängliga stationerna syns som gula och röda prickar på kartan.

För musen över prickarna för att se namnen på stationerna.

Klicka sedan för att få väderrapporter och prognoser.

För att ändra kartan: Klicka på de gröna knapparna med ett svart kors på för att zooma in; den gröna knappen med ett streck på för att zooma ut; eller på de gröna pilarna för angränsande kartor.


METAR-TAF: